Fort Greely, Alaska
Current Conditions -  °F | °C
As of 3:53 PM on Tuesday 27 Jan 2015 (Local Time) from PABI Reporting Station
Few Clouds Few Clouds  
Wind Chill: -23°   Ceiling: Unl
Heat Index: -23°   Visibility: 10mi
Dew Point: -28°   Wind: 3mph
Humidity: 78%   Direction: 120°ESE
Pressure: 30.13"   Gusts: NA
Location:  63.98°N, 145.76°W
Report Text: PABI 280053Z 12003KT 10SM FEW200 M31/M33 A3013 RMK AO2 SLP293 T13061333
Loading
Personal Weather Stations






























Interactive Weather Map New forecast layout! Learn more

10-Day Weather Forecast

Advertisements
Track Severe Weather on mobile